Time;durP1;ratioP1;P1;durP2;ratioP2;P2;SDS_P1;SDS_P2;PMS_P1;PMS_P2;Temp;Humidity;BMP_temperature;BMP_pressure;BME280_temperature;BME280_humidity;BME280_pressure;Samples;Min_cycle;Max_cycle;Signal;HPM_P1;HPM_P2
2024/01/26 00:03:51;;;;;;;21.90;16.80;;;;;;;10.12;100.00;100252.62;7250577;39;20251;31
2024/01/26 00:14:27;;;;;;;20.90;14.85;;;;;;;10.10;100.00;100244.69;7296107;39;21360;31
2024/01/26 00:19:45;;;;;;;21.93;15.53;;;;;;;10.12;100.00;100241.84;7339039;39;21267;31
2024/01/26 00:25:21;;;;;;;22.50;15.93;;;;;;;10.10;100.00;100233.06;7320667;39;20254;31
2024/01/26 00:30:58;;;;;;;27.47;20.90;;;;;;;10.08;100.00;100229.66;7313849;39;20245;31
2024/01/26 00:36:19;;;;;;;22.83;17.37;;;;;;;10.12;100.00;100236.47;7267183;40;20257;31
2024/01/26 00:41:54;;;;;;;21.25;15.35;;;;;;;10.11;100.00;100218.59;7264289;39;20261;31
2024/01/26 00:47:30;;;;;;;18.13;13.30;;;;;;;10.12;100.00;100220.31;7259043;40;20376;31
2024/01/26 00:52:52;;;;;;;19.50;14.33;;;;;;;10.11;99.89;100218.59;7288965;40;20252;31
2024/01/26 00:58:26;;;;;;;14.25;12.30;;;;;;;10.06;100.00;100229.78;7316596;39;20241;31
2024/01/26 01:04:02;;;;;;;15.37;11.83;;;;;;;10.00;100.00;100218.72;7337434;39;20372;31
2024/01/26 01:09:22;;;;;;;15.70;12.40;;;;;;;9.90;100.00;100206.09;7349638;39;20254;31
2024/01/26 01:14:54;;;;;;;12.90;8.90;;;;;;;9.95;100.00;100202.97;7337872;39;20245;31
2024/01/26 01:20:30;;;;;;;12.00;9.60;;;;;;;9.94;100.00;100199.44;7273176;40;20269;31
2024/01/26 01:25:48;;;;;;;13.43;9.23;;;;;;;9.94;100.00;100195.88;7298555;39;20465;31
2024/01/26 01:31:07;;;;;;;13.87;10.17;;;;;;;9.91;100.00;100201.56;7326447;39;20244;31
2024/01/26 01:36:40;;;;;;;13.50;10.30;;;;;;;9.89;100.00;100201.69;7328640;39;21184;31
2024/01/26 01:47:05;;;;;;;12.77;8.40;;;;;;;9.86;100.00;100199.28;7372357;39;20788;31
2024/01/26 01:52:41;;;;;;;10.43;7.03;;;;;;;9.79;100.00;100187.34;7339360;39;20402;31
2024/01/26 01:57:58;;;;;;;4.70;2.70;;;;;;;9.90;100.00;100176.47;7280989;39;20267;31
2024/01/26 02:03:20;;;;;;;3.00;2.33;;;;;;;10.00;100.00;100181.03;7295373;39;20272;31
2024/01/26 02:08:56;;;;;;;2.70;1.90;;;;;;;10.02;100.00;100184.41;7282776;39;20257;31
2024/01/26 02:19:18;;;;;;;3.40;2.30;;;;;;;10.05;99.75;100184.97;7342674;39;20267;31
2024/01/26 02:24:54;;;;;;;2.93;1.83;;;;;;;10.03;99.83;100178.91;7365183;39;20818;31
2024/01/26 02:35:33;;;;;;;3.40;1.90;;;;;;;10.01;99.74;100177.31;7417117;39;20282;31
2024/01/26 02:46:14;;;;;;;6.90;1.80;;;;;;;9.99;99.43;100187.41;7334321;39;20746;31
2024/01/26 02:51:50;;;;;;;2.25;1.60;;;;;;;9.99;99.72;100182.00;7361228;39;20267;31
2024/01/26 02:57:11;;;;;;;3.70;1.70;;;;;;;10.04;99.99;100193.22;7365804;39;20537;31
2024/01/26 03:03:06;;;;;;;4.17;1.93;;;;;;;10.04;100.00;100190.53;7357203;39;20272;31
2024/01/26 03:08:41;;;;;;;3.25;1.80;;;;;;;10.03;100.00;100186.13;7338077;39;20268;31
2024/01/26 03:19:17;;;;;;;2.90;1.90;;;;;;;10.04;100.00;100177.06;7267564;39;21320;31
2024/01/26 03:29:53;;;;;;;5.40;4.10;;;;;;;10.06;100.00;100175.91;7312595;39;21248;31
2024/01/26 03:35:29;;;;;;;5.40;4.47;;;;;;;9.96;100.00;100173.19;7317896;39;20279;31
2024/01/26 03:40:50;;;;;;;7.45;4.45;;;;;;;9.93;100.00;100169.94;7298636;39;20244;31
2024/01/26 03:46:25;;;;;;;8.15;4.40;;;;;;;9.90;100.00;100160.31;7338347;39;20399;31
2024/01/26 03:52:02;;;;;;;5.22;4.20;;;;;;;9.91;100.00;100161.16;7357215;39;20449;31
2024/01/26 03:57:22;;;;;;;7.10;4.05;;;;;;;9.94;100.00;100159.03;7328790;39;20593;31
2024/01/26 04:02:57;;;;;;;4.03;3.23;;;;;;;9.89;100.00;100157.75;7347578;39;20391;31
2024/01/26 04:08:33;;;;;;;3.80;2.90;;;;;;;9.87;100.00;100163.25;7292394;39;20272;31
2024/01/26 04:13:54;;;;;;;4.13;2.83;;;;;;;9.83;100.00;100169.91;7313131;39;20296;31
2024/01/26 04:19:30;;;;;;;4.73;3.10;;;;;;;9.74;100.00;100181.50;7299408;39;20240;31
2024/01/26 04:25:06;;;;;;;4.87;3.00;;;;;;;9.66;100.00;100186.72;7279542;39;20237;31
2024/01/26 04:30:26;;;;;;;5.30;3.33;;;;;;;9.68;100.00;100174.00;7310389;39;20330;31
2024/01/26 04:41:07;;;;;;;4.65;3.65;;;;;;;9.62;100.00;100174.53;7347990;39;20880;31
2024/01/26 04:51:29;;;;;;;6.00;5.10;;;;;;;9.69;100.00;100180.22;7345996;39;20275;31
2024/01/26 04:57:06;;;;;;;5.85;4.85;;;;;;;9.66;100.00;100173.25;7295067;39;20250;31
2024/01/26 05:07:30;;;;;;;5.90;4.90;;;;;;;9.64;100.00;100159.09;7314799;39;20699;31
2024/01/26 05:13:06;;;;;;;5.70;5.10;;;;;;;9.61;100.00;100159.37;7317781;39;20270;31
2024/01/26 05:18:41;;;;;;;5.85;4.70;;;;;;;9.59;100.00;100152.44;7309318;39;20268;31
2024/01/26 05:29:18;;;;;;;6.10;4.95;;;;;;;9.59;100.00;100158.66;7316540;39;21314;31
2024/01/26 05:34:35;;;;;;;7.60;5.33;;;;;;;9.62;100.00;100155.69;7086755;40;21049;31
2024/01/26 05:40:11;;;;;;;6.03;5.27;;;;;;;9.58;100.00;100148.87;7312478;39;20344;31
2024/01/26 05:45:47;;;;;;;7.20;5.20;;;;;;;9.56;100.00;100169.72;7315285;39;20282;31
2024/01/26 05:51:07;;;;;;;6.27;5.00;;;;;;;9.60;100.00;100155.00;7358237;39;20240;31
2024/01/26 05:56:25;;;;;;;7.70;5.87;;;;;;;9.65;100.00;100154.59;7335317;39;20591;31
2024/01/26 06:02:03;;;;;;;4.13;3.30;;;;;;;9.67;100.00;100160.66;7335694;39;21359;31
2024/01/26 06:07:21;;;;;;;4.40;3.37;;;;;;;9.78;100.00;100180.28;7301420;39;20360;31
2024/01/26 06:12:56;;;;;;;3.40;2.60;;;;;;;9.81;100.00;100152.22;7276731;40;20257;31
2024/01/26 06:18:32;;;;;;;2.70;2.43;;;;;;;9.87;100.00;100171.34;7294338;39;20252;31
2024/01/26 06:23:52;;;;;;;4.60;3.00;;;;;;;9.93;100.00;100164.56;7276632;39;20268;31
2024/01/26 06:29:12;;;;;;;5.53;3.07;;;;;;;10.02;100.00;100170.94;7237440;40;20690;31
2024/01/26 06:34:49;;;;;;;5.00;3.50;;;;;;;10.01;100.00;100155.78;7230958;40;20339;31
2024/01/26 06:40:22;;;;;;;3.77;3.33;;;;;;;10.02;100.00;100157.47;7253421;39;21329;31
2024/01/26 06:45:57;;;;;;;3.90;3.15;;;;;;;10.04;100.00;100161.75;7267106;39;20265;31
2024/01/26 06:51:31;;;;;;;3.93;3.00;;;;;;;10.06;100.00;100156.22;7244907;40;20306;31
2024/01/26 06:56:51;;;;;;;4.30;3.10;;;;;;;10.09;100.00;100161.34;7206873;40;20273;31
2024/01/26 07:07:30;;;;;;;3.90;2.50;;;;;;;10.08;100.00;100154.25;7284454;39;21298;31
2024/01/26 07:17:51;;;;;;;4.90;2.70;;;;;;;10.10;100.00;100163.00;7287377;39;21473;31
2024/01/26 07:23:28;;;;;;;3.50;2.80;;;;;;;10.08;100.00;100138.06;7280943;39;20428;31
2024/01/26 07:29:03;;;;;;;3.57;2.40;;;;;;;10.08;100.00;100140.78;7273153;39;20260;31
2024/01/26 07:34:38;;;;;;;8.10;2.80;;;;;;;10.07;100.00;100141.75;7276580;40;20319;31
2024/01/26 07:40:15;;;;;;;4.10;2.80;;;;;;;10.10;100.00;100141.47;7309629;39;20237;31
2024/01/26 07:45:50;;;;;;;3.80;2.70;;;;;;;10.16;100.00;100143.66;7283713;40;20241;31
2024/01/26 07:51:10;;;;;;;5.43;3.47;;;;;;;10.17;100.00;100113.03;7281096;39;20239;31
2024/01/26 07:56:47;;;;;;;4.80;2.60;;;;;;;10.18;100.00;100098.56;7267377;39;20256;31
2024/01/26 08:02:22;;;;;;;3.30;2.70;;;;;;;10.17;100.00;100135.44;7277710;39;20261;31
2024/01/26 08:07:57;;;;;;;4.43;2.70;;;;;;;10.19;100.00;100129.88;7325797;39;20271;31
2024/01/26 08:13:36;;;;;;;4.13;2.37;;;;;;;10.19;100.00;100121.78;7298662;40;20223;31
2024/01/26 08:18:56;;;;;;;3.15;2.40;;;;;;;10.22;100.00;100121.53;7253076;40;20459;31
2024/01/26 08:24:32;;;;;;;4.80;2.30;;;;;;;10.25;100.00;100110.47;7260900;40;20256;31
2024/01/26 08:30:05;;;;;;;3.07;2.17;;;;;;;10.23;100.00;100089.03;7259324;39;20287;31
2024/01/26 08:35:22;;;;;;;3.80;2.70;;;;;;;10.31;100.00;100085.66;7288430;39;20288;31
2024/01/26 08:46:00;;;;;;;2.70;2.30;;;;;;;10.32;100.00;100077.41;7357841;39;21234;31
2024/01/26 08:51:32;;;;;;;5.80;2.40;;;;;;;10.34;100.00;100072.75;7259382;40;20685;31
2024/01/26 08:57:07;;;;;;;3.00;2.17;;;;;;;10.40;99.66;100074.84;7258791;39;20227;31
2024/01/26 09:02:43;;;;;;;3.43;1.97;;;;;;;10.44;98.67;100072.75;7280416;40;20257;31
2024/01/26 09:08:18;;;;;;;2.40;2.20;;;;;;;10.48;98.95;100066.06;7234831;40;20266;31
2024/01/26 09:18:58;;;;;;;6.70;3.00;;;;;;;10.58;98.79;100048.00;7297391;39;20346;31
2024/01/26 09:29:20;;;;;;;4.20;2.40;;;;;;;10.68;97.72;100056.91;7262765;40;21258;31
2024/01/26 09:34:56;;;;;;;3.93;2.67;;;;;;;10.66;98.10;100048.13;7341009;39;20283;31
2024/01/26 09:40:31;;;;;;;2.90;2.10;;;;;;;10.71;97.80;100039.59;7306904;39;20278;31
2024/01/26 09:45:53;;;;;;;3.00;2.55;;;;;;;10.78;97.46;100041.56;7361633;39;20333;31
2024/01/26 09:51:29;;;;;;;3.90;2.00;;;;;;;10.79;97.06;100045.94;7369910;39;20328;31
2024/01/26 09:57:04;;;;;;;4.50;3.05;;;;;;;10.82;95.95;100069.94;7355746;39;20492;31
2024/01/26 10:02:40;;;;;;;4.12;2.33;;;;;;;10.84;95.91;100070.63;7309335;39;20369;31
2024/01/26 10:08:16;;;;;;;4.40;2.60;;;;;;;10.82;97.33;100075.34;7291240;39;20257;31
2024/01/26 10:13:50;;;;;;;3.50;2.30;;;;;;;10.80;98.08;100053.03;7278451;39;20311;31
2024/01/26 10:19:26;;;;;;;4.00;2.00;;;;;;;10.80;98.47;100065.66;7213519;40;20242;31
2024/01/26 10:25:03;;;;;;;5.00;2.50;;;;;;;10.81;98.26;100052.06;7227377;40;20402;31
2024/01/26 10:30:37;;;;;;;3.80;2.00;;;;;;;10.82;98.64;100071.78;7236897;40;20258;31
2024/01/26 10:36:13;;;;;;;4.50;2.10;;;;;;;10.82;98.91;100048.38;7254882;40;20235;31
2024/01/26 10:41:48;;;;;;;2.80;2.00;;;;;;;10.83;99.61;100036.59;7277755;39;20233;31
2024/01/26 10:47:22;;;;;;;2.20;1.85;;;;;;;10.82;100.00;100036.72;7257735;40;20307;31
2024/01/26 10:52:58;;;;;;;2.27;1.90;;;;;;;10.85;100.00;100023.78;7270534;40;20377;31
2024/01/26 10:58:34;;;;;;;4.00;2.20;;;;;;;10.85;100.00;100022.94;7246484;40;21359;31
2024/01/26 11:04:07;;;;;;;4.03;2.80;;;;;;;10.91;100.00;100018.81;7226577;40;20494;31
2024/01/26 11:14:45;;;;;;;2.90;2.10;;;;;;;10.93;100.00;100009.56;7254722;40;21338;31
2024/01/26 11:20:18;;;;;;;3.43;2.20;;;;;;;10.92;100.00;100007.88;7280153;39;21352;31
2024/01/26 11:25:53;;;;;;;3.87;2.50;;;;;;;10.92;100.00;100013.28;7325693;39;20314;31
2024/01/26 11:31:26;;;;;;;2.00;1.70;;;;;;;10.95;100.00;100020.22;7339652;39;20232;31
2024/01/26 11:37:01;;;;;;;3.00;1.90;;;;;;;10.95;100.00;100007.56;7306346;39;20255;31
2024/01/26 11:42:23;;;;;;;2.60;2.30;;;;;;;11.01;100.00;100001.59;7227796;40;20318;31
2024/01/26 11:47:59;;;;;;;4.83;2.33;;;;;;;11.01;100.00;100008.84;7238382;40;21339;31
2024/01/26 11:53:34;;;;;;;3.23;2.00;;;;;;;11.01;100.00;100014.22;7256427;39;20420;31
2024/01/26 11:59:09;;;;;;;2.87;1.80;;;;;;;11.01;100.00;99993.50;7247026;40;20257;31
2024/01/26 12:04:45;;;;;;;2.23;1.77;;;;;;;11.00;100.00;99996.34;7288514;39;20399;31
2024/01/26 12:10:17;;;;;;;3.60;2.80;;;;;;;10.98;100.00;99995.63;7196892;40;20266;31
2024/01/26 12:20:55;;;;;;;2.70;1.83;;;;;;;11.01;100.00;99989.94;7240614;40;21335;31
2024/01/26 12:26:30;;;;;;;3.55;2.40;;;;;;;11.08;100.00;99989.19;7258579;40;20257;31
2024/01/26 12:31:48;;;;;;;7.80;3.75;;;;;;;11.09;100.00;99982.81;7297800;39;20341;31
2024/01/26 12:37:22;;;;;;;5.07;3.07;;;;;;;11.07;100.00;99995.56;7138627;39;20370;31
2024/01/26 12:42:57;;;;;;;10.30;7.05;;;;;;;11.10;100.00;99983.66;7320688;39;20311;31
2024/01/26 12:48:15;;;;;;;11.83;6.63;;;;;;;11.15;100.00;99978.63;7313770;39;21280;31
2024/01/26 12:58:56;;;;;;;2.20;1.70;;;;;;;11.18;100.00;99970.25;7397480;39;20744;31
2024/01/26 13:09:21;;;;;;;1.93;1.40;;;;;;;11.14;100.00;99976.97;7351852;39;20249;31
2024/01/26 13:14:54;;;;;;;2.17;1.37;;;;;;;11.15;100.00;99962.44;7342311;39;20454;31
2024/01/26 13:20:15;;;;;;;2.25;1.40;;;;;;;11.16;100.00;99973.09;7354693;39;20259;31
2024/01/26 13:25:35;;;;;;;2.47;1.50;;;;;;;11.16;100.00;99972.25;7401931;39;20341;31
2024/01/26 13:31:11;;;;;;;1.67;1.27;;;;;;;11.16;100.00;99965.00;7380940;39;20254;31
2024/01/26 13:36:32;;;;;;;1.60;1.40;;;;;;;11.22;100.00;99975.19;7296910;39;20345;31
2024/01/26 13:42:08;;;;;;;1.50;1.35;;;;;;;11.20;100.00;99982.56;7258704;39;20257;31
2024/01/26 13:47:44;;;;;;;2.70;1.60;;;;;;;11.20;100.00;99984.44;7218438;40;20519;31
2024/01/26 13:53:05;;;;;;;1.50;1.25;;;;;;;11.17;100.00;99993.69;7230936;39;20312;31
2024/01/26 13:58:40;;;;;;;3.10;1.60;;;;;;;11.18;100.00;100000.78;7289127;39;20436;31
2024/01/26 14:04:19;;;;;;;1.77;1.30;;;;;;;11.18;100.00;99991.84;7280786;39;21479;31
2024/01/26 14:09:37;;;;;;;2.30;1.43;;;;;;;11.24;100.00;99999.31;7225177;39;20414;31
2024/01/26 14:15:13;;;;;;;4.60;3.10;;;;;;;11.27;100.00;100001.72;7280092;39;20252;31
2024/01/26 14:25:50;;;;;;;2.03;1.63;;;;;;;11.32;100.00;100039.06;7295909;39;20408;31
2024/01/26 14:31:25;;;;;;;1.80;1.47;;;;;;;11.36;100.00;100052.09;7313994;39;20240;31
2024/01/26 14:37:01;;;;;;;2.67;2.47;;;;;;;11.41;100.00;100048.94;7246231;40;20258;31
2024/01/26 14:42:37;;;;;;;1.97;1.17;;;;;;;11.40;100.00;100048.09;7275766;40;20269;31
2024/01/26 14:48:13;;;;;;;2.43;1.10;;;;;;;11.40;100.00;100069.69;7246009;40;20264;31
2024/01/26 14:53:50;;;;;;;1.05;0.90;;;;;;;11.37;99.30;100078.06;7297673;39;20261;31
2024/01/26 14:59:27;;;;;;;1.23;1.13;;;;;;;11.35;98.20;100096.28;7235868;40;20372;31
2024/01/26 15:05:01;;;;;;;1.67;1.17;;;;;;;11.30;97.42;100115.63;7225760;40;20285;31
2024/01/26 15:15:42;;;;;;;2.00;1.40;;;;;;;11.21;96.79;100129.16;7291583;39;20723;31
2024/01/26 15:26:18;;;;;;;0.70;0.70;;;;;;;11.16;96.33;100172.75;7296969;39;21223;31
2024/01/26 15:31:54;;;;;;;1.85;0.80;;;;;;;11.17;95.84;100204.16;7303316;39;20335;31
2024/01/26 15:37:15;;;;;;;5.90;3.30;;;;;;;11.13;93.41;100243.22;7317267;39;20244;31
2024/01/26 15:42:51;;;;;;;3.55;1.50;;;;;;;11.03;89.61;100260.41;7339270;39;20319;31
2024/01/26 15:48:28;;;;;;;3.05;1.50;;;;;;;10.81;87.29;100288.50;7258436;40;20245;31
2024/01/26 15:54:04;;;;;;;2.37;1.60;;;;;;;10.62;80.61;100307.41;7225513;40;20372;31
2024/01/26 15:59:25;;;;;;;3.45;1.40;;;;;;;10.51;80.86;100327.22;7220326;40;20248;31
2024/01/26 16:05:02;;;;;;;3.30;1.63;;;;;;;10.37;81.81;100343.78;7245658;40;20246;31
2024/01/26 16:10:36;;;;;;;3.95;1.70;;;;;;;10.29;80.79;100359.78;7236767;40;20241;31
2024/01/26 16:16:11;;;;;;;7.10;1.20;;;;;;;10.14;76.21;100385.34;7255663;39;20289;31
2024/01/26 16:21:48;;;;;;;4.55;1.40;;;;;;;10.10;79.69;100400.06;7287963;39;20262;31
2024/01/26 16:27:06;;;;;;;3.58;1.62;;;;;;;10.04;79.83;100417.63;7316869;39;20600;31
2024/01/26 16:32:23;;;;;;;1.87;1.27;;;;;;;9.95;78.71;100418.44;7336126;39;20612;31
2024/01/26 16:37:58;;;;;;;3.37;1.23;;;;;;;9.81;72.19;100438.47;7278130;40;20358;31
2024/01/26 16:43:34;;;;;;;3.83;1.20;;;;;;;9.81;76.82;100465.41;7217088;40;20279;31
2024/01/26 16:49:10;;;;;;;3.20;1.35;;;;;;;9.77;77.07;100463.09;7227316;40;20243;31
2024/01/26 16:54:45;;;;;;;2.25;1.30;;;;;;;9.72;76.40;100481.47;7233053;40;20426;31
2024/01/26 17:00:23;;;;;;;1.93;1.10;;;;;;;9.68;77.38;100502.41;7229750;39;20272;31
2024/01/26 17:05:58;;;;;;;3.70;1.47;;;;;;;9.64;77.87;100516.25;7289607;39;20336;31
2024/01/26 17:11:35;;;;;;;2.63;1.20;;;;;;;9.52;74.05;100525.37;7322289;39;20282;31
2024/01/26 17:16:57;;;;;;;1.90;1.20;;;;;;;9.46;75.87;100548.25;7275913;40;20258;31
2024/01/26 17:27:38;;;;;;;3.95;1.30;;;;;;;9.41;78.39;100580.91;7244357;40;20262;31
2024/01/26 17:33:13;;;;;;;3.45;1.40;;;;;;;9.36;78.95;100590.34;7276880;39;20373;31
2024/01/26 17:43:52;;;;;;;271.67;165.80;;;;;;;9.18;79.30;100610.66;7358528;39;21352;31
2024/01/26 17:54:17;;;;;;;17.23;9.47;;;;;;;9.15;78.25;100622.53;7321151;39;20726;31
2024/01/26 17:59:55;;;;;;;10.70;5.90;;;;;;;9.02;75.85;100627.16;7319388;39;20244;31
2024/01/26 18:05:19;;;;;;;8.95;4.60;;;;;;;8.96;77.67;100646.47;7318208;39;20312;31
2024/01/26 18:10:53;;;;;;;2.95;1.50;;;;;;;8.84;75.24;100650.97;7340547;39;20432;31
2024/01/26 18:21:32;;;;;;;4.90;1.60;;;;;;;8.70;75.58;100661.09;7322070;39;21313;31
2024/01/26 18:32:09;;;;;;;5.40;2.10;;;;;;;8.70;78.50;100671.84;7332932;39;20263;31
2024/01/26 18:42:50;;;;;;;7.10;2.30;;;;;;;8.34;79.27;100699.69;7335555;39;20278;31
2024/01/26 18:48:22;;;;;;;3.80;2.33;;;;;;;8.20;80.42;100713.28;7339157;39;20393;31
2024/01/26 18:53:58;;;;;;;6.50;2.40;;;;;;;8.00;79.04;100712.06;7320530;39;20240;31
2024/01/26 18:59:33;;;;;;;3.50;1.50;;;;;;;7.93;78.00;100718.84;7336981;39;20380;31
2024/01/26 19:04:54;;;;;;;2.67;1.27;;;;;;;7.88;75.37;100729.94;7295804;39;20478;31
2024/01/26 19:10:30;;;;;;;5.33;1.70;;;;;;;7.99;78.48;100743.41;7317258;39;20305;31
2024/01/26 19:16:04;;;;;;;3.67;1.63;;;;;;;8.11;78.34;100766.72;7249908;40;20261;31
2024/01/26 19:21:25;;;;;;;2.07;1.33;;;;;;;8.08;78.94;100784.84;7318344;39;20236;31
2024/01/26 19:27:01;;;;;;;5.63;1.53;;;;;;;7.88;76.54;100791.66;7323906;39;20246;31
2024/01/26 19:32:34;;;;;;;2.50;1.30;;;;;;;7.82;76.33;100789.41;7133353;39;20231;31
2024/01/26 19:38:09;;;;;;;3.50;1.40;;;;;;;7.72;74.30;100795.56;7297516;40;20319;31
2024/01/26 19:43:44;;;;;;;3.60;1.40;;;;;;;7.61;73.52;100793.63;7285721;40;20251;31
2024/01/26 19:49:20;;;;;;;2.35;1.30;;;;;;;7.52;73.65;100803.19;7282388;40;20262;31
2024/01/26 19:59:44;;;;;;;5.17;1.40;;;;;;;7.51;74.07;100817.56;7323449;39;21344;31
2024/01/26 20:10:26;;;;;;;5.00;1.70;;;;;;;7.32;73.15;100822.50;7318856;39;20905;31
2024/01/26 20:16:05;;;;;;;4.00;1.50;;;;;;;7.36;74.84;100823.16;7276446;40;20350;31
2024/01/26 20:21:38;;;;;;;3.05;2.45;;;;;;;7.36;74.56;100818.66;7284765;40;20245;31
2024/01/26 20:27:11;;;;;;;4.70;1.90;;;;;;;7.35;75.11;100822.28;7295567;39;20599;31
2024/01/26 20:37:51;;;;;;;4.97;1.63;;;;;;;7.48;74.94;100841.06;7316305;39;20763;31
2024/01/26 20:48:29;;;;;;;3.97;1.80;;;;;;;7.44;75.98;100832.38;7325874;39;20372;31
2024/01/26 20:59:09;;;;;;;5.37;2.30;;;;;;;7.28;76.17;100857.69;7297039;40;20280;31
2024/01/26 21:04:46;;;;;;;5.75;1.90;;;;;;;7.15;76.69;100871.91;7221454;40;20246;31
2024/01/26 21:10:22;;;;;;;4.27;1.30;;;;;;;7.04;76.67;100874.47;7245060;40;20256;31
2024/01/26 21:15:58;;;;;;;5.50;1.90;;;;;;;7.05;76.46;100873.50;7256408;40;20324;31
2024/01/26 21:21:33;;;;;;;3.95;1.95;;;;;;;7.05;77.25;100876.19;7194721;40;20455;31
2024/01/26 21:27:09;;;;;;;6.67;3.27;;;;;;;6.91;75.77;100872.72;7168857;40;20242;31
2024/01/26 21:32:27;;;;;;;5.63;2.37;;;;;;;6.68;77.70;100879.59;7225055;40;20273;31
2024/01/26 21:43:08;;;;;;;5.30;2.20;;;;;;;6.62;77.90;100901.44;7275886;39;21050;31
2024/01/26 21:53:34;;;;;;;9.50;2.25;;;;;;;6.47;78.39;100916.66;7258090;40;20261;31
2024/01/26 22:04:12;;;;;;;7.20;2.40;;;;;;;6.25;77.88;100917.19;7316077;39;21329;31
2024/01/26 22:14:37;;;;;;;4.73;2.43;;;;;;;6.14;78.81;100926.84;7333255;39;20844;31
2024/01/26 22:25:14;;;;;;;5.50;2.40;;;;;;;6.09;79.39;100912.91;7376663;39;21314;31
2024/01/26 22:35:51;;;;;;;4.15;1.80;;;;;;;5.81;79.88;100916.38;7331138;39;20383;31
2024/01/26 22:41:23;;;;;;;4.50;1.73;;;;;;;5.76;79.46;100932.72;7337941;39;20660;31
2024/01/26 22:46:59;;;;;;;6.03;1.80;;;;;;;5.72;79.23;100933.84;7316689;39;21363;31
2024/01/26 22:52:19;;;;;;;5.90;1.70;;;;;;;5.68;79.90;100944.84;7297000;39;20334;31
2024/01/26 22:57:54;;;;;;;6.47;2.30;;;;;;;5.12;79.22;100950.88;7296461;39;20512;31
2024/01/26 23:03:31;;;;;;;5.70;2.50;;;;;;;5.12;80.86;100946.38;7217061;40;20344;31
2024/01/26 23:09:05;;;;;;;4.33;2.47;;;;;;;5.20;80.91;100968.19;7200337;40;20375;31
2024/01/26 23:14:42;;;;;;;5.43;2.97;;;;;;;5.21;80.44;100969.03;7251668;40;20264;31
2024/01/26 23:20:18;;;;;;;4.90;2.10;;;;;;;5.10;79.86;100966.13;7246608;40;20241;31
2024/01/26 23:25:53;;;;;;;2.93;1.80;;;;;;;5.02;80.40;100963.91;7265090;39;20290;31
2024/01/26 23:31:28;;;;;;;8.80;2.20;;;;;;;4.86;80.14;100961.25;7267523;39;20377;31
2024/01/26 23:37:03;;;;;;;3.30;1.70;;;;;;;4.83;80.95;100964.06;7239019;40;20249;31
2024/01/26 23:42:24;;;;;;;9.43;2.50;;;;;;;4.96;81.48;100964.22;7230852;40;20328;31
2024/01/26 23:47:59;;;;;;;4.73;1.90;;;;;;;4.97;80.47;100971.31;7266004;39;20264;31
2024/01/26 23:53:35;;;;;;;4.07;1.70;;;;;;;4.87;80.40;100983.50;7287325;39;21487;31
2024/01/26 23:59:10;;;;;;;3.50;1.90;;;;;;;4.83;80.78;100988.12;7307508;39;20244;31
